Date,TemperatureHighF,TemperatureAvgF,TemperatureLowF,DewpointHighF,DewpointAvgF,DewpointLowF,HumidityHigh,HumidityAvg,HumidityLow,PressureMaxIn,PressureMinIn,WindSpeedMaxMPH,WindSpeedAvgMPH,GustSpeedMaxMPH,PrecipitationSumIn
2013-7-1,79.3,63.5,47.8,56.3,51.4,47.3,99,69,36,30.90,30.80,21,3,21,0.08
2013-7-2,81.5,64.2,47.5,56.5,48.5,40.3,99,64,24,30.89,30.71,19,3,19,0.01
2013-7-3,84.0,62.8,44.6,55.0,46.6,36.3,99,63,22,30.81,30.62,18,2,18,0.00
2013-7-4,89.1,68.6,47.1,53.1,45.3,34.3,90,51,15,30.71,30.57,15,2,18,0.00
2013-7-5,88.3,69.5,54.0,64.6,51.0,44.2,83,55,25,30.70,30.52,26,3,26,0.09
2013-7-6,88.3,69.5,54.5,60.6,53.3,45.7,88,60,27,30.72,30.61,16,2,21,0.00
2013-7-7,91.2,70.6,54.0,57.9,51.5,45.3,87,56,22,30.79,30.64,17,2,17,0.00
2013-7-8,90.5,71.8,52.2,58.3,51.3,44.1,95,55,22,30.82,30.69,11,2,11,0.01
2013-7-9,92.3,74.1,54.1,54.7,45.3,35.6,73,41,15,30.86,30.75,17,2,17,0.00
2013-7-10,93.9,69.4,53.2,61.3,51.8,41.4,84,58,20,30.87,30.71,30,3,30,0.06
2013-7-11,91.8,72.4,57.4,59.0,54.6,43.7,92,59,23,30.84,30.61,20,2,20,0.00
2013-7-12,91.4,72.3,57.2,60.8,53.3,45.5,74,55,22,30.74,30.63,19,3,19,0.02
2013-7-13,93.7,73.8,56.5,58.5,53.1,45.1,85,53,22,30.78,30.66,17,3,17,0.00
2013-7-14,88.0,68.1,54.1,59.5,54.0,48.7,91,64,28,30.86,30.72,20,3,20,0.12
2013-7-15,65.5,61.0,55.4,61.5,57.5,53.2,99,89,73,30.85,30.78,17,1,17,0.09
2013-7-16,75.4,63.0,45.9,54.0,49.8,45.1,99,66,42,30.89,30.77,19,4,19,0.00
2013-7-17,82.9,66.8,49.1,55.0,50.1,46.4,94,59,32,30.90,30.77,17,3,17,0.00
2013-7-18,90.7,65.5,49.1,64.9,52.7,46.2,94,68,25,30.89,30.69,25,3,30,0.26
2013-7-19,82.0,64.4,50.9,59.5,55.3,50.4,99,76,36,30.83,30.74,21,2,21,0.18
2013-7-20,90.7,69.0,50.4,61.0,52.8,45.7,99,64,22,30.80,30.60,20,2,20,0.00
2013-7-21,91.9,72.1,53.2,58.5,49.4,32.4,92,52,14,30.73,30.58,14,2,14,0.00
2013-7-22,92.3,71.1,51.8,53.4,46.3,36.3,80,47,15,30.74,30.64,24,2,24,0.00
2013-7-23,96.3,71.0,47.3,57.0,44.3,31.1,87,49,12,30.79,30.65,17,2,17,0.09
2013-7-24,76.5,67.0,58.1,60.8,54.8,48.2,86,66,44,30.86,30.76,19,2,19,0.00
2013-7-25,85.5,65.9,53.2,59.7,53.3,42.8,94,67,28,30.88,30.71,15,3,18,0.08
2013-7-26,79.3,65.2,46.9,56.8,51.3,46.0,98,65,42,30.91,30.80,20,3,20,0.00
2013-7-27,90.3,67.7,50.9,59.2,51.8,46.6,89,61,24,30.86,30.64,15,3,15,0.06
2013-7-28,75.6,66.1,57.6,61.7,56.3,52.5,96,73,45,30.74,30.58,16,2,16,0.05
2013-7-29,83.3,68.4,53.6,56.3,50.5,41.0,95,59,24,30.84,30.64,15,3,15,0.00
2013-7-30,87.6,66.6,45.3,52.9,44.0,34.0,92,52,19,30.90,30.79,17,3,17,0.00
2013-7-31,90.7,70.5,47.5,55.0,43.2,31.8,84,45,14,30.95,30.75,15,2,15,0.00